sensor_id;sensor_type;location;lat;lon;timestamp;P1;durP1;ratioP1;P2;durP2;ratioP2
17340;SDS011;8788;49.930;8.660;2023-08-06T00:01:56;3.10;;;2.70;;
17340;SDS011;8788;49.930;8.660;2023-08-06T00:04:23;4.45;;;2.42;;
17340;SDS011;8788;49.930;8.660;2023-08-06T00:06:50;3.00;;;2.75;;
17340;SDS011;8788;49.930;8.660;2023-08-06T00:09:17;2.78;;;2.13;;
17340;SDS011;8788;49.930;8.660;2023-08-06T00:11:45;2.63;;;2.35;;
17340;SDS011;8788;49.930;8.660;2023-08-06T00:14:12;2.88;;;2.35;;
17340;SDS011;8788;49.930;8.660;2023-08-06T00:16:42;4.32;;;2.30;;
17340;SDS011;8788;49.930;8.660;2023-08-06T00:19:10;2.60;;;2.40;;
17340;SDS011;8788;49.930;8.660;2023-08-06T00:21:37;4.28;;;2.53;;
17340;SDS011;8788;49.930;8.660;2023-08-06T00:24:05;2.85;;;2.53;;
17340;SDS011;8788;49.930;8.660;2023-08-06T00:26:32;4.28;;;2.83;;
17340;SDS011;8788;49.930;8.660;2023-08-06T00:29:00;4.32;;;2.85;;
17340;SDS011;8788;49.930;8.660;2023-08-06T00:31:27;2.42;;;2.28;;
17340;SDS011;8788;49.930;8.660;2023-08-06T00:33:54;3.58;;;2.38;;
17340;SDS011;8788;49.930;8.660;2023-08-06T00:36:21;3.42;;;2.47;;
17340;SDS011;8788;49.930;8.660;2023-08-06T00:38:48;3.40;;;2.60;;
17340;SDS011;8788;49.930;8.660;2023-08-06T00:41:15;4.00;;;2.78;;
17340;SDS011;8788;49.930;8.660;2023-08-06T00:43:43;3.15;;;2.85;;
17340;SDS011;8788;49.930;8.660;2023-08-06T00:46:12;4.13;;;2.85;;
17340;SDS011;8788;49.930;8.660;2023-08-06T00:48:40;2.70;;;2.50;;
17340;SDS011;8788;49.930;8.660;2023-08-06T00:51:09;2.85;;;2.55;;
17340;SDS011;8788;49.930;8.660;2023-08-06T00:53:37;3.80;;;2.40;;
17340;SDS011;8788;49.930;8.660;2023-08-06T00:56:05;3.85;;;2.72;;
17340;SDS011;8788;49.930;8.660;2023-08-06T00:58:33;3.88;;;2.05;;
17340;SDS011;8788;49.930;8.660;2023-08-06T01:01:01;2.55;;;2.30;;
17340;SDS011;8788;49.930;8.660;2023-08-06T01:03:29;2.67;;;2.40;;
17340;SDS011;8788;49.930;8.660;2023-08-06T01:05:57;3.45;;;2.58;;
17340;SDS011;8788;49.930;8.660;2023-08-06T01:08:28;2.85;;;2.25;;
17340;SDS011;8788;49.930;8.660;2023-08-06T01:11:17;2.97;;;2.67;;
17340;SDS011;8788;49.930;8.660;2023-08-06T01:13:52;2.40;;;2.20;;
17340;SDS011;8788;49.930;8.660;2023-08-06T01:16:25;4.65;;;2.58;;
17340;SDS011;8788;49.930;8.660;2023-08-06T01:18:54;2.40;;;2.20;;
17340;SDS011;8788;49.930;8.660;2023-08-06T01:21:22;2.22;;;2.03;;
17340;SDS011;8788;49.930;8.660;2023-08-06T01:23:49;4.53;;;2.08;;
17340;SDS011;8788;49.930;8.660;2023-08-06T01:26:19;4.60;;;2.55;;
17340;SDS011;8788;49.930;8.660;2023-08-06T01:28:52;3.53;;;2.13;;
17340;SDS011;8788;49.930;8.660;2023-08-06T01:31:26;4.25;;;2.10;;
17340;SDS011;8788;49.930;8.660;2023-08-06T01:33:56;3.35;;;2.55;;
17340;SDS011;8788;49.930;8.660;2023-08-06T01:36:27;3.20;;;2.28;;
17340;SDS011;8788;49.930;8.660;2023-08-06T01:38:55;4.40;;;2.53;;
17340;SDS011;8788;49.930;8.660;2023-08-06T01:41:23;3.58;;;2.53;;
17340;SDS011;8788;49.930;8.660;2023-08-06T01:43:50;2.40;;;2.20;;
17340;SDS011;8788;49.930;8.660;2023-08-06T01:46:17;4.65;;;2.30;;
17340;SDS011;8788;49.930;8.660;2023-08-06T01:48:44;3.20;;;2.22;;
17340;SDS011;8788;49.930;8.660;2023-08-06T01:51:11;3.28;;;2.20;;
17340;SDS011;8788;49.930;8.660;2023-08-06T01:53:40;5.53;;;2.35;;
17340;SDS011;8788;49.930;8.660;2023-08-06T01:56:07;2.33;;;2.15;;
17340;SDS011;8788;49.930;8.660;2023-08-06T01:58:34;3.50;;;2.28;;
17340;SDS011;8788;49.930;8.660;2023-08-06T02:01:01;4.72;;;2.97;;
17340;SDS011;8788;49.930;8.660;2023-08-06T02:03:28;6.05;;;2.33;;
17340;SDS011;8788;49.930;8.660;2023-08-06T02:05:55;4.60;;;3.30;;
17340;SDS011;8788;49.930;8.660;2023-08-06T02:08:22;2.13;;;1.92;;
17340;SDS011;8788;49.930;8.660;2023-08-06T02:10:51;3.85;;;2.25;;
17340;SDS011;8788;49.930;8.660;2023-08-06T02:13:18;4.45;;;2.03;;
17340;SDS011;8788;49.930;8.660;2023-08-06T02:15:46;6.18;;;2.22;;
17340;SDS011;8788;49.930;8.660;2023-08-06T02:18:13;4.07;;;2.60;;
17340;SDS011;8788;49.930;8.660;2023-08-06T02:20:41;6.25;;;2.25;;
17340;SDS011;8788;49.930;8.660;2023-08-06T02:23:08;4.20;;;2.10;;
17340;SDS011;8788;49.930;8.660;2023-08-06T02:25:35;4.45;;;2.00;;
17340;SDS011;8788;49.930;8.660;2023-08-06T02:28:03;3.55;;;2.20;;
17340;SDS011;8788;49.930;8.660;2023-08-06T02:30:31;3.63;;;2.28;;
17340;SDS011;8788;49.930;8.660;2023-08-06T02:32:58;9.85;;;2.35;;
17340;SDS011;8788;49.930;8.660;2023-08-06T02:35:26;3.80;;;2.33;;
17340;SDS011;8788;49.930;8.660;2023-08-06T02:37:53;4.63;;;2.05;;
17340;SDS011;8788;49.930;8.660;2023-08-06T02:40:21;5.60;;;2.22;;
17340;SDS011;8788;49.930;8.660;2023-08-06T02:42:48;3.60;;;1.85;;
17340;SDS011;8788;49.930;8.660;2023-08-06T02:45:17;4.07;;;1.98;;
17340;SDS011;8788;49.930;8.660;2023-08-06T02:47:44;3.95;;;2.08;;
17340;SDS011;8788;49.930;8.660;2023-08-06T02:50:11;3.58;;;2.08;;
17340;SDS011;8788;49.930;8.660;2023-08-06T02:52:38;3.08;;;2.03;;
17340;SDS011;8788;49.930;8.660;2023-08-06T02:55:07;3.13;;;2.20;;
17340;SDS011;8788;49.930;8.660;2023-08-06T02:57:39;2.90;;;1.80;;
17340;SDS011;8788;49.930;8.660;2023-08-06T03:00:06;2.30;;;2.10;;
17340;SDS011;8788;49.930;8.660;2023-08-06T03:02:38;2.33;;;1.38;;
17340;SDS011;8788;49.930;8.660;2023-08-06T03:05:28;2.70;;;1.95;;
17340;SDS011;8788;49.930;8.660;2023-08-06T03:07:55;2.08;;;1.90;;
17340;SDS011;8788;49.930;8.660;2023-08-06T03:10:25;3.22;;;1.95;;
17340;SDS011;8788;49.930;8.660;2023-08-06T03:12:55;4.45;;;1.95;;
17340;SDS011;8788;49.930;8.660;2023-08-06T03:15:23;3.08;;;1.80;;
17340;SDS011;8788;49.930;8.660;2023-08-06T03:17:52;3.25;;;1.67;;
17340;SDS011;8788;49.930;8.660;2023-08-06T03:20:23;2.40;;;1.73;;
17340;SDS011;8788;49.930;8.660;2023-08-06T03:22:51;2.55;;;1.63;;
17340;SDS011;8788;49.930;8.660;2023-08-06T03:25:19;4.57;;;1.80;;
17340;SDS011;8788;49.930;8.660;2023-08-06T03:27:48;1.58;;;1.48;;
17340;SDS011;8788;49.930;8.660;2023-08-06T03:30:17;1.60;;;1.50;;
17340;SDS011;8788;49.930;8.660;2023-08-06T03:32:44;2.85;;;2.03;;
17340;SDS011;8788;49.930;8.660;2023-08-06T03:35:15;2.95;;;1.67;;
17340;SDS011;8788;49.930;8.660;2023-08-06T03:37:42;2.00;;;1.50;;
17340;SDS011;8788;49.930;8.660;2023-08-06T03:40:09;2.88;;;1.77;;
17340;SDS011;8788;49.930;8.660;2023-08-06T03:42:37;2.38;;;2.03;;
17340;SDS011;8788;49.930;8.660;2023-08-06T03:45:04;3.40;;;2.22;;
17340;SDS011;8788;49.930;8.660;2023-08-06T03:47:32;3.28;;;2.05;;
17340;SDS011;8788;49.930;8.660;2023-08-06T03:49:59;6.35;;;2.00;;
17340;SDS011;8788;49.930;8.660;2023-08-06T03:52:28;4.03;;;2.45;;
17340;SDS011;8788;49.930;8.660;2023-08-06T03:54:55;5.82;;;2.00;;
17340;SDS011;8788;49.930;8.660;2023-08-06T03:57:23;3.35;;;2.25;;
17340;SDS011;8788;49.930;8.660;2023-08-06T03:59:50;4.72;;;1.95;;
17340;SDS011;8788;49.930;8.660;2023-08-06T04:02:17;3.55;;;2.17;;
17340;SDS011;8788;49.930;8.660;2023-08-06T04:04:44;3.85;;;2.65;;
17340;SDS011;8788;49.930;8.660;2023-08-06T04:07:11;2.35;;;1.80;;
17340;SDS011;8788;49.930;8.660;2023-08-06T04:09:52;2.40;;;1.70;;
17340;SDS011;8788;49.930;8.660;2023-08-06T04:12:20;4.18;;;1.50;;
17340;SDS011;8788;49.930;8.660;2023-08-06T04:14:47;1.60;;;1.50;;
17340;SDS011;8788;49.930;8.660;2023-08-06T04:17:14;3.40;;;1.70;;
17340;SDS011;8788;49.930;8.660;2023-08-06T04:19:41;4.45;;;1.90;;
17340;SDS011;8788;49.930;8.660;2023-08-06T04:22:08;2.22;;;1.80;;
17340;SDS011;8788;49.930;8.660;2023-08-06T04:24:35;1.80;;;1.70;;
17340;SDS011;8788;49.930;8.660;2023-08-06T04:27:04;2.15;;;1.80;;
17340;SDS011;8788;49.930;8.660;2023-08-06T04:29:32;2.20;;;1.77;;
17340;SDS011;8788;49.930;8.660;2023-08-06T04:31:59;3.10;;;2.25;;
17340;SDS011;8788;49.930;8.660;2023-08-06T04:34:26;2.85;;;2.40;;
17340;SDS011;8788;49.930;8.660;2023-08-06T04:36:53;5.82;;;2.60;;
17340;SDS011;8788;49.930;8.660;2023-08-06T04:39:22;3.00;;;2.15;;
17340;SDS011;8788;49.930;8.660;2023-08-06T04:41:49;3.47;;;2.40;;
17340;SDS011;8788;49.930;8.660;2023-08-06T04:44:18;3.28;;;2.15;;
17340;SDS011;8788;49.930;8.660;2023-08-06T04:46:45;2.95;;;2.25;;
17340;SDS011;8788;49.930;8.660;2023-08-06T04:49:12;3.95;;;2.22;;
17340;SDS011;8788;49.930;8.660;2023-08-06T04:51:39;3.67;;;2.25;;
17340;SDS011;8788;49.930;8.660;2023-08-06T04:54:06;5.85;;;2.50;;
17340;SDS011;8788;49.930;8.660;2023-08-06T04:56:33;3.05;;;2.25;;
17340;SDS011;8788;49.930;8.660;2023-08-06T04:59:00;3.30;;;2.47;;
17340;SDS011;8788;49.930;8.660;2023-08-06T05:01:29;6.50;;;2.85;;
17340;SDS011;8788;49.930;8.660;2023-08-06T05:03:56;4.43;;;2.67;;
17340;SDS011;8788;49.930;8.660;2023-08-06T05:06:23;2.40;;;2.05;;
17340;SDS011;8788;49.930;8.660;2023-08-06T05:08:50;3.55;;;2.50;;
17340;SDS011;8788;49.930;8.660;2023-08-06T05:11:17;4.72;;;2.60;;
17340;SDS011;8788;49.930;8.660;2023-08-06T05:13:44;3.97;;;2.75;;
17340;SDS011;8788;49.930;8.660;2023-08-06T05:16:11;2.63;;;1.70;;
17340;SDS011;8788;49.930;8.660;2023-08-06T05:18:39;2.30;;;1.92;;
17340;SDS011;8788;49.930;8.660;2023-08-06T05:21:07;3.67;;;2.10;;
17340;SDS011;8788;49.930;8.660;2023-08-06T05:23:34;3.30;;;2.10;;
17340;SDS011;8788;49.930;8.660;2023-08-06T05:26:01;3.67;;;2.03;;
17340;SDS011;8788;49.930;8.660;2023-08-06T05:28:28;2.67;;;1.70;;
17340;SDS011;8788;49.930;8.660;2023-08-06T05:30:55;2.70;;;1.35;;
17340;SDS011;8788;49.930;8.660;2023-08-06T05:33:22;5.57;;;1.73;;
17340;SDS011;8788;49.930;8.660;2023-08-06T05:35:50;3.45;;;1.40;;
17340;SDS011;8788;49.930;8.660;2023-08-06T05:38:17;1.05;;;0.95;;
17340;SDS011;8788;49.930;8.660;2023-08-06T05:40:44;3.30;;;1.13;;
17340;SDS011;8788;49.930;8.660;2023-08-06T05:43:11;2.63;;;1.00;;
17340;SDS011;8788;49.930;8.660;2023-08-06T05:45:38;0.88;;;0.88;;
17340;SDS011;8788;49.930;8.660;2023-08-06T05:48:05;3.50;;;1.30;;
17340;SDS011;8788;49.930;8.660;2023-08-06T05:50:32;1.48;;;1.05;;
17340;SDS011;8788;49.930;8.660;2023-08-06T05:53:01;3.13;;;1.17;;
17340;SDS011;8788;49.930;8.660;2023-08-06T05:55:28;1.88;;;1.30;;
17340;SDS011;8788;49.930;8.660;2023-08-06T05:57:56;1.23;;;1.13;;
17340;SDS011;8788;49.930;8.660;2023-08-06T06:00:23;1.20;;;1.08;;
17340;SDS011;8788;49.930;8.660;2023-08-06T06:02:50;2.10;;;1.38;;
17340;SDS011;8788;49.930;8.660;2023-08-06T06:05:17;3.72;;;1.75;;
17340;SDS011;8788;49.930;8.660;2023-08-06T06:07:44;3.90;;;1.88;;
17340;SDS011;8788;49.930;8.660;2023-08-06T06:10:13;3.03;;;1.75;;
17340;SDS011;8788;49.930;8.660;2023-08-06T06:12:40;5.55;;;2.47;;
17340;SDS011;8788;49.930;8.660;2023-08-06T06:15:07;2.97;;;1.85;;
17340;SDS011;8788;49.930;8.660;2023-08-06T06:17:35;4.65;;;2.28;;
17340;SDS011;8788;49.930;8.660;2023-08-06T06:20:02;3.85;;;1.50;;
17340;SDS011;8788;49.930;8.660;2023-08-06T06:22:30;5.57;;;2.00;;
17340;SDS011;8788;49.930;8.660;2023-08-06T06:24:57;3.78;;;1.92;;
17340;SDS011;8788;49.930;8.660;2023-08-06T06:27:25;2.33;;;1.42;;
17340;SDS011;8788;49.930;8.660;2023-08-06T06:29:52;4.85;;;1.75;;
17340;SDS011;8788;49.930;8.660;2023-08-06T06:32:20;4.60;;;2.30;;
17340;SDS011;8788;49.930;8.660;2023-08-06T06:34:47;5.05;;;2.03;;
17340;SDS011;8788;49.930;8.660;2023-08-06T06:37:14;4.07;;;1.80;;
17340;SDS011;8788;49.930;8.660;2023-08-06T06:39:41;3.10;;;1.60;;
17340;SDS011;8788;49.930;8.660;2023-08-06T06:42:09;3.15;;;1.55;;
17340;SDS011;8788;49.930;8.660;2023-08-06T06:44:43;2.08;;;1.42;;
17340;SDS011;8788;49.930;8.660;2023-08-06T06:47:10;2.00;;;1.33;;
17340;SDS011;8788;49.930;8.660;2023-08-06T06:49:37;3.13;;;1.40;;
17340;SDS011;8788;49.930;8.660;2023-08-06T06:52:05;2.25;;;1.20;;
17340;SDS011;8788;49.930;8.660;2023-08-06T06:54:32;3.20;;;1.42;;
17340;SDS011;8788;49.930;8.660;2023-08-06T06:56:59;3.60;;;1.67;;
17340;SDS011;8788;49.930;8.660;2023-08-06T06:59:27;2.28;;;1.50;;
17340;SDS011;8788;49.930;8.660;2023-08-06T07:01:55;1.30;;;1.23;;
17340;SDS011;8788;49.930;8.660;2023-08-06T07:04:22;2.97;;;1.55;;
17340;SDS011;8788;49.930;8.660;2023-08-06T07:06:49;2.13;;;1.00;;
17340;SDS011;8788;49.930;8.660;2023-08-06T07:09:17;1.50;;;1.10;;
17340;SDS011;8788;49.930;8.660;2023-08-06T07:11:44;2.20;;;1.05;;
17340;SDS011;8788;49.930;8.660;2023-08-06T07:14:11;3.22;;;1.25;;
17340;SDS011;8788;49.930;8.660;2023-08-06T07:16:39;2.28;;;0.95;;
17340;SDS011;8788;49.930;8.660;2023-08-06T07:19:08;2.70;;;1.10;;
17340;SDS011;8788;49.930;8.660;2023-08-06T07:21:35;0.93;;;0.90;;
17340;SDS011;8788;49.930;8.660;2023-08-06T07:24:02;2.95;;;1.10;;
17340;SDS011;8788;49.930;8.660;2023-08-06T07:26:29;2.85;;;1.25;;
17340;SDS011;8788;49.930;8.660;2023-08-06T07:28:56;1.40;;;1.25;;
17340;SDS011;8788;49.930;8.660;2023-08-06T07:31:23;1.70;;;1.27;;
17340;SDS011;8788;49.930;8.660;2023-08-06T07:33:50;1.65;;;0.93;;
17340;SDS011;8788;49.930;8.660;2023-08-06T07:36:19;1.50;;;1.00;;
17340;SDS011;8788;49.930;8.660;2023-08-06T07:38:46;1.00;;;0.70;;
17340;SDS011;8788;49.930;8.660;2023-08-06T07:41:16;1.83;;;0.90;;
17340;SDS011;8788;49.930;8.660;2023-08-06T07:43:43;1.88;;;0.73;;
17340;SDS011;8788;49.930;8.660;2023-08-06T07:46:10;2.90;;;1.05;;
17340;SDS011;8788;49.930;8.660;2023-08-06T07:48:38;1.30;;;0.90;;
17340;SDS011;8788;49.930;8.660;2023-08-06T07:51:05;1.75;;;0.80;;
17340;SDS011;8788;49.930;8.660;2023-08-06T07:53:34;1.67;;;1.00;;
17340;SDS011;8788;49.930;8.660;2023-08-06T07:56:01;3.45;;;1.20;;
17340;SDS011;8788;49.930;8.660;2023-08-06T07:58:28;1.20;;;1.10;;
17340;SDS011;8788;49.930;8.660;2023-08-06T08:00:56;1.58;;;1.00;;
17340;SDS011;8788;49.930;8.660;2023-08-06T08:03:24;2.63;;;1.15;;
17340;SDS011;8788;49.930;8.660;2023-08-06T08:05:53;1.90;;;0.90;;
17340;SDS011;8788;49.930;8.660;2023-08-06T08:08:22;1.92;;;1.10;;
17340;SDS011;8788;49.930;8.660;2023-08-06T08:10:51;3.55;;;1.20;;
17340;SDS011;8788;49.930;8.660;2023-08-06T08:13:19;5.95;;;2.38;;
17340;SDS011;8788;49.930;8.660;2023-08-06T08:15:46;1.90;;;1.10;;
17340;SDS011;8788;49.930;8.660;2023-08-06T08:18:13;3.33;;;1.42;;
17340;SDS011;8788;49.930;8.660;2023-08-06T08:20:40;3.60;;;1.27;;
17340;SDS011;8788;49.930;8.660;2023-08-06T08:23:07;2.50;;;1.23;;
17340;SDS011;8788;49.930;8.660;2023-08-06T08:25:35;2.13;;;1.27;;
17340;SDS011;8788;49.930;8.660;2023-08-06T08:28:03;3.38;;;1.15;;
17340;SDS011;8788;49.930;8.660;2023-08-06T08:30:30;2.15;;;1.10;;
17340;SDS011;8788;49.930;8.660;2023-08-06T08:32:57;1.85;;;1.00;;
17340;SDS011;8788;49.930;8.660;2023-08-06T08:35:24;2.15;;;0.90;;
17340;SDS011;8788;49.930;8.660;2023-08-06T08:37:52;2.50;;;0.80;;
17340;SDS011;8788;49.930;8.660;2023-08-06T08:40:19;1.90;;;1.10;;
17340;SDS011;8788;49.930;8.660;2023-08-06T08:42:49;0.70;;;0.70;;
17340;SDS011;8788;49.930;8.660;2023-08-06T08:45:18;1.75;;;0.90;;
17340;SDS011;8788;49.930;8.660;2023-08-06T08:47:48;3.25;;;0.80;;
17340;SDS011;8788;49.930;8.660;2023-08-06T08:50:15;2.28;;;0.70;;
17340;SDS011;8788;49.930;8.660;2023-08-06T08:52:45;0.80;;;0.80;;
17340;SDS011;8788;49.930;8.660;2023-08-06T08:55:14;3.30;;;0.93;;
17340;SDS011;8788;49.930;8.660;2023-08-06T08:57:41;1.63;;;0.73;;
17340;SDS011;8788;49.930;8.660;2023-08-06T09:00:09;1.38;;;0.40;;
17340;SDS011;8788;49.930;8.660;2023-08-06T09:02:38;0.90;;;0.70;;
17340;SDS011;8788;49.930;8.660;2023-08-06T09:05:06;0.63;;;0.50;;
17340;SDS011;8788;49.930;8.660;2023-08-06T09:07:37;0.55;;;0.47;;
17340;SDS011;8788;49.930;8.660;2023-08-06T09:10:07;0.70;;;0.60;;
17340;SDS011;8788;49.930;8.660;2023-08-06T09:12:39;1.42;;;1.33;;
17340;SDS011;8788;49.930;8.660;2023-08-06T09:15:06;0.77;;;0.50;;
17340;SDS011;8788;49.930;8.660;2023-08-06T09:17:34;0.20;;;0.20;;
17340;SDS011;8788;49.930;8.660;2023-08-06T09:20:10;0.47;;;0.47;;
17340;SDS011;8788;49.930;8.660;2023-08-06T09:22:38;0.65;;;0.20;;
17340;SDS011;8788;49.930;8.660;2023-08-06T09:25:06;1.40;;;0.50;;
17340;SDS011;8788;49.930;8.660;2023-08-06T09:27:35;0.45;;;0.20;;
17340;SDS011;8788;49.930;8.660;2023-08-06T09:30:03;1.85;;;0.20;;
17340;SDS011;8788;49.930;8.660;2023-08-06T09:35:18;0.70;;;0.32;;
17340;SDS011;8788;49.930;8.660;2023-08-06T09:37:46;1.98;;;0.40;;
17340;SDS011;8788;49.930;8.660;2023-08-06T09:40:26;0.47;;;0.47;;
17340;SDS011;8788;49.930;8.660;2023-08-06T09:42:54;0.80;;;0.77;;
17340;SDS011;8788;49.930;8.660;2023-08-06T09:45:22;1.02;;;0.70;;
17340;SDS011;8788;49.930;8.660;2023-08-06T09:47:49;1.20;;;0.63;;
17340;SDS011;8788;49.930;8.660;2023-08-06T09:50:18;0.20;;;0.20;;
17340;SDS011;8788;49.930;8.660;2023-08-06T09:52:46;0.65;;;0.57;;
17340;SDS011;8788;49.930;8.660;2023-08-06T09:55:14;3.70;;;0.63;;
17340;SDS011;8788;49.930;8.660;2023-08-06T09:57:42;0.65;;;0.40;;
17340;SDS011;8788;49.930;8.660;2023-08-06T10:00:09;2.60;;;0.30;;
17340;SDS011;8788;49.930;8.660;2023-08-06T10:02:38;2.63;;;0.30;;
17340;SDS011;8788;49.930;8.660;2023-08-06T10:05:07;0.38;;;0.32;;
17340;SDS011;8788;49.930;8.660;2023-08-06T10:07:36;0.35;;;0.32;;
17340;SDS011;8788;49.930;8.660;2023-08-06T10:10:05;0.25;;;0.25;;
17340;SDS011;8788;49.930;8.660;2023-08-06T10:12:34;0.30;;;0.30;;
17340;SDS011;8788;49.930;8.660;2023-08-06T10:15:05;0.30;;;0.30;;
17340;SDS011;8788;49.930;8.660;2023-08-06T10:17:36;1.20;;;0.30;;
17340;SDS011;8788;49.930;8.660;2023-08-06T10:20:04;0.40;;;0.40;;
17340;SDS011;8788;49.930;8.660;2023-08-06T10:22:35;0.60;;;0.32;;
17340;SDS011;8788;49.930;8.660;2023-08-06T10:25:08;0.35;;;0.20;;
17340;SDS011;8788;49.930;8.660;2023-08-06T10:27:40;0.57;;;0.30;;
17340;SDS011;8788;49.930;8.660;2023-08-06T10:30:23;0.35;;;0.30;;
17340;SDS011;8788;49.930;8.660;2023-08-06T10:32:52;1.40;;;0.30;;
17340;SDS011;8788;49.930;8.660;2023-08-06T10:35:33;0.50;;;0.50;;
17340;SDS011;8788;49.930;8.660;2023-08-06T10:38:07;2.85;;;0.30;;
17340;SDS011;8788;49.930;8.660;2023-08-06T10:40:35;1.30;;;0.63;;
17340;SDS011;8788;49.930;8.660;2023-08-06T10:43:03;0.30;;;0.30;;
17340;SDS011;8788;49.930;8.660;2023-08-06T10:45:34;0.20;;;0.20;;
17340;SDS011;8788;49.930;8.660;2023-08-06T10:48:01;0.55;;;0.25;;
17340;SDS011;8788;49.930;8.660;2023-08-06T10:50:29;0.30;;;0.30;;
17340;SDS011;8788;49.930;8.660;2023-08-06T10:52:56;0.30;;;0.30;;
17340;SDS011;8788;49.930;8.660;2023-08-06T10:55:26;0.40;;;0.40;;
17340;SDS011;8788;49.930;8.660;2023-08-06T10:57:55;0.30;;;0.30;;
17340;SDS011;8788;49.930;8.660;2023-08-06T11:00:22;0.65;;;0.57;;
17340;SDS011;8788;49.930;8.660;2023-08-06T11:02:50;0.45;;;0.30;;
17340;SDS011;8788;49.930;8.660;2023-08-06T11:05:18;0.32;;;0.30;;
17340;SDS011;8788;49.930;8.660;2023-08-06T11:07:45;0.10;;;0.10;;
17340;SDS011;8788;49.930;8.660;2023-08-06T11:10:13;0.10;;;0.10;;
17340;SDS011;8788;49.930;8.660;2023-08-06T11:12:42;0.17;;;0.17;;
17340;SDS011;8788;49.930;8.660;2023-08-06T11:15:09;0.20;;;0.20;;
17340;SDS011;8788;49.930;8.660;2023-08-06T11:17:37;0.20;;;0.20;;
17340;SDS011;8788;49.930;8.660;2023-08-06T11:20:06;1.95;;;0.20;;
17340;SDS011;8788;49.930;8.660;2023-08-06T11:22:35;0.10;;;0.10;;
17340;SDS011;8788;49.930;8.660;2023-08-06T11:25:03;0.10;;;0.10;;
17340;SDS011;8788;49.930;8.660;2023-08-06T11:27:31;0.10;;;0.10;;
17340;SDS011;8788;49.930;8.660;2023-08-06T11:30:00;0.20;;;0.20;;
17340;SDS011;8788;49.930;8.660;2023-08-06T11:32:27;0.20;;;0.20;;
17340;SDS011;8788;49.930;8.660;2023-08-06T11:34:54;0.10;;;0.10;;
17340;SDS011;8788;49.930;8.660;2023-08-06T11:37:22;0.28;;;0.17;;
17340;SDS011;8788;49.930;8.660;2023-08-06T11:39:50;0.20;;;0.10;;
17340;SDS011;8788;49.930;8.660;2023-08-06T11:42:18;0.00;;;0.00;;
17340;SDS011;8788;49.930;8.660;2023-08-06T11:44:45;0.10;;;0.10;;
17340;SDS011;8788;49.930;8.660;2023-08-06T11:47:14;0.55;;;0.17;;
17340;SDS011;8788;49.930;8.660;2023-08-06T11:49:43;0.00;;;0.00;;
17340;SDS011;8788;49.930;8.660;2023-08-06T11:52:16;0.20;;;0.10;;
17340;SDS011;8788;49.930;8.660;2023-08-06T11:54:46;0.10;;;0.10;;
17340;SDS011;8788;49.930;8.660;2023-08-06T11:57:14;0.10;;;0.10;;
17340;SDS011;8788;49.930;8.660;2023-08-06T11:59:41;0.30;;;0.25;;
17340;SDS011;8788;49.930;8.660;2023-08-06T12:02:09;0.40;;;0.40;;
17340;SDS011;8788;49.930;8.660;2023-08-06T12:07:29;1.70;;;0.25;;
17340;SDS011;8788;49.930;8.660;2023-08-06T12:09:57;0.20;;;0.20;;
17340;SDS011;8788;49.930;8.660;2023-08-06T12:12:24;0.20;;;0.20;;
17340;SDS011;8788;49.930;8.660;2023-08-06T12:14:51;0.30;;;0.30;;
17340;SDS011;8788;49.930;8.660;2023-08-06T12:17:18;0.25;;;0.25;;
17340;SDS011;8788;49.930;8.660;2023-08-06T12:19:45;0.20;;;0.20;;
17340;SDS011;8788;49.930;8.660;2023-08-06T12:22:15;0.40;;;0.40;;
17340;SDS011;8788;49.930;8.660;2023-08-06T12:24:42;2.20;;;0.70;;
17340;SDS011;8788;49.930;8.660;2023-08-06T12:27:10;1.13;;;0.40;;
17340;SDS011;8788;49.930;8.660;2023-08-06T12:29:40;0.55;;;0.55;;
17340;SDS011;8788;49.930;8.660;2023-08-06T12:32:09;1.38;;;1.27;;
17340;SDS011;8788;49.930;8.660;2023-08-06T12:34:37;2.78;;;2.42;;
17340;SDS011;8788;49.930;8.660;2023-08-06T12:37:04;2.45;;;2.25;;
17340;SDS011;8788;49.930;8.660;2023-08-06T12:39:33;1.33;;;0.85;;
17340;SDS011;8788;49.930;8.660;2023-08-06T12:42:01;0.60;;;0.55;;
17340;SDS011;8788;49.930;8.660;2023-08-06T12:44:28;0.90;;;0.43;;
17340;SDS011;8788;49.930;8.660;2023-08-06T12:46:55;1.00;;;0.90;;
17340;SDS011;8788;49.930;8.660;2023-08-06T12:49:23;0.70;;;0.70;;
17340;SDS011;8788;49.930;8.660;2023-08-06T12:51:51;1.38;;;0.73;;
17340;SDS011;8788;49.930;8.660;2023-08-06T12:54:19;1.35;;;0.95;;
17340;SDS011;8788;49.930;8.660;2023-08-06T12:56:48;0.70;;;0.70;;
17340;SDS011;8788;49.930;8.660;2023-08-06T12:59:16;1.33;;;0.68;;
17340;SDS011;8788;49.930;8.660;2023-08-06T13:01:43;2.42;;;0.93;;
17340;SDS011;8788;49.930;8.660;2023-08-06T13:04:11;0.77;;;0.50;;
17340;SDS011;8788;49.930;8.660;2023-08-06T13:06:38;1.10;;;0.70;;
17340;SDS011;8788;49.930;8.660;2023-08-06T13:09:05;0.75;;;0.50;;
17340;SDS011;8788;49.930;8.660;2023-08-06T13:11:33;2.13;;;1.17;;
17340;SDS011;8788;49.930;8.660;2023-08-06T13:14:05;1.55;;;1.15;;
17340;SDS011;8788;49.930;8.660;2023-08-06T13:16:33;0.82;;;0.82;;
17340;SDS011;8788;49.930;8.660;2023-08-06T13:19:01;1.50;;;0.43;;
17340;SDS011;8788;49.930;8.660;2023-08-06T13:21:31;1.80;;;0.70;;
17340;SDS011;8788;49.930;8.660;2023-08-06T13:24:00;0.30;;;0.30;;
17340;SDS011;8788;49.930;8.660;2023-08-06T13:26:28;0.90;;;0.52;;
17340;SDS011;8788;49.930;8.660;2023-08-06T13:28:56;1.27;;;0.60;;
17340;SDS011;8788;49.930;8.660;2023-08-06T13:31:26;0.85;;;0.50;;
17340;SDS011;8788;49.930;8.660;2023-08-06T13:33:53;0.90;;;0.60;;
17340;SDS011;8788;49.930;8.660;2023-08-06T13:36:22;0.32;;;0.32;;
17340;SDS011;8788;49.930;8.660;2023-08-06T13:38:50;0.43;;;0.43;;
17340;SDS011;8788;49.930;8.660;2023-08-06T13:41:17;2.05;;;0.50;;
17340;SDS011;8788;49.930;8.660;2023-08-06T13:43:44;1.20;;;1.10;;
17340;SDS011;8788;49.930;8.660;2023-08-06T13:46:11;1.50;;;0.50;;
17340;SDS011;8788;49.930;8.660;2023-08-06T13:48:44;1.30;;;0.95;;
17340;SDS011;8788;49.930;8.660;2023-08-06T13:51:13;2.08;;;0.85;;
17340;SDS011;8788;49.930;8.660;2023-08-06T13:53:40;0.93;;;0.60;;
17340;SDS011;8788;49.930;8.660;2023-08-06T13:56:08;1.05;;;1.05;;
17340;SDS011;8788;49.930;8.660;2023-08-06T13:58:36;1.20;;;0.50;;
17340;SDS011;8788;49.930;8.660;2023-08-06T14:01:03;1.15;;;0.40;;
17340;SDS011;8788;49.930;8.660;2023-08-06T14:03:31;2.83;;;0.90;;
17340;SDS011;8788;49.930;8.660;2023-08-06T14:05:59;1.75;;;0.43;;
17340;SDS011;8788;49.930;8.660;2023-08-06T14:08:26;0.38;;;0.30;;
17340;SDS011;8788;49.930;8.660;2023-08-06T14:10:53;0.40;;;0.40;;
17340;SDS011;8788;49.930;8.660;2023-08-06T14:13:21;0.28;;;0.28;;
17340;SDS011;8788;49.930;8.660;2023-08-06T14:15:48;1.02;;;0.70;;
17340;SDS011;8788;49.930;8.660;2023-08-06T14:18:15;0.75;;;0.47;;
17340;SDS011;8788;49.930;8.660;2023-08-06T14:20:43;0.93;;;0.22;;
17340;SDS011;8788;49.930;8.660;2023-08-06T14:23:11;0.90;;;0.45;;
17340;SDS011;8788;49.930;8.660;2023-08-06T14:25:39;1.40;;;0.30;;
17340;SDS011;8788;49.930;8.660;2023-08-06T14:28:06;1.02;;;0.30;;
17340;SDS011;8788;49.930;8.660;2023-08-06T14:30:33;0.93;;;0.40;;
17340;SDS011;8788;49.930;8.660;2023-08-06T14:33:01;0.60;;;0.30;;
17340;SDS011;8788;49.930;8.660;2023-08-06T14:35:28;0.88;;;0.30;;
17340;SDS011;8788;49.930;8.660;2023-08-06T14:37:55;1.00;;;0.30;;
17340;SDS011;8788;49.930;8.660;2023-08-06T14:40:23;0.52;;;0.40;;
17340;SDS011;8788;49.930;8.660;2023-08-06T14:42:53;0.28;;;0.28;;
17340;SDS011;8788;49.930;8.660;2023-08-06T14:45:20;1.05;;;0.40;;
17340;SDS011;8788;49.930;8.660;2023-08-06T14:47:47;0.52;;;0.28;;
17340;SDS011;8788;49.930;8.660;2023-08-06T14:50:14;0.52;;;0.22;;
17340;SDS011;8788;49.930;8.660;2023-08-06T14:52:41;0.60;;;0.35;;
17340;SDS011;8788;49.930;8.660;2023-08-06T14:55:08;0.60;;;0.30;;
17340;SDS011;8788;49.930;8.660;2023-08-06T14:57:37;1.05;;;0.40;;
17340;SDS011;8788;49.930;8.660;2023-08-06T15:00:04;1.17;;;0.45;;
17340;SDS011;8788;49.930;8.660;2023-08-06T15:02:34;0.32;;;0.20;;
17340;SDS011;8788;49.930;8.660;2023-08-06T15:05:01;0.40;;;0.20;;
17340;SDS011;8788;49.930;8.660;2023-08-06T15:07:28;1.35;;;0.47;;
17340;SDS011;8788;49.930;8.660;2023-08-06T15:09:58;0.40;;;0.17;;
17340;SDS011;8788;49.930;8.660;2023-08-06T15:12:25;0.70;;;0.20;;